sensor_id;sensor_type;location;lat;lon;timestamp;temperature;humidity
18502;DHT22;68437;52.236;5.710;2023-05-29T00:00:46;10.60;99.90
18502;DHT22;68437;52.236;5.710;2023-05-29T00:03:13;10.60;99.90
18502;DHT22;68437;52.236;5.710;2023-05-29T00:05:41;10.60;99.90
18502;DHT22;68437;52.236;5.710;2023-05-29T00:08:08;10.60;99.90
18502;DHT22;68437;52.236;5.710;2023-05-29T00:10:35;10.60;99.90
18502;DHT22;68437;52.236;5.710;2023-05-29T00:13:02;10.50;99.90
18502;DHT22;68437;52.236;5.710;2023-05-29T00:15:29;10.50;99.90
18502;DHT22;68437;52.236;5.710;2023-05-29T00:17:56;10.50;99.90
18502;DHT22;68437;52.236;5.710;2023-05-29T00:20:23;10.50;99.90
18502;DHT22;68437;52.236;5.710;2023-05-29T00:22:52;10.40;99.90
18502;DHT22;68437;52.236;5.710;2023-05-29T00:25:19;10.40;99.90
18502;DHT22;68437;52.236;5.710;2023-05-29T00:27:45;10.30;99.90
18502;DHT22;68437;52.236;5.710;2023-05-29T00:30:12;10.30;99.90
18502;DHT22;68437;52.236;5.710;2023-05-29T00:32:39;10.20;99.90
18502;DHT22;68437;52.236;5.710;2023-05-29T00:35:07;10.20;99.90
18502;DHT22;68437;52.236;5.710;2023-05-29T00:37:34;10.10;99.90
18502;DHT22;68437;52.236;5.710;2023-05-29T00:40:02;10.20;99.90
18502;DHT22;68437;52.236;5.710;2023-05-29T00:42:29;10.10;99.90
18502;DHT22;68437;52.236;5.710;2023-05-29T00:44:56;10.10;99.90
18502;DHT22;68437;52.236;5.710;2023-05-29T00:47:23;10.10;99.90
18502;DHT22;68437;52.236;5.710;2023-05-29T00:49:51;10.00;99.90
18502;DHT22;68437;52.236;5.710;2023-05-29T00:52:20;10.00;99.90
18502;DHT22;68437;52.236;5.710;2023-05-29T00:54:47;10.00;99.90
18502;DHT22;68437;52.236;5.710;2023-05-29T00:57:15;10.00;99.90
18502;DHT22;68437;52.236;5.710;2023-05-29T00:59:44;9.80;99.90
18502;DHT22;68437;52.236;5.710;2023-05-29T01:02:12;9.80;99.90
18502;DHT22;68437;52.236;5.710;2023-05-29T01:04:41;9.80;99.90
18502;DHT22;68437;52.236;5.710;2023-05-29T01:07:09;9.80;99.90
18502;DHT22;68437;52.236;5.710;2023-05-29T01:09:36;9.80;99.90
18502;DHT22;68437;52.236;5.710;2023-05-29T01:12:08;9.70;99.90
18502;DHT22;68437;52.236;5.710;2023-05-29T01:14:45;9.70;99.90
18502;DHT22;68437;52.236;5.710;2023-05-29T01:17:18;9.60;99.90
18502;DHT22;68437;52.236;5.710;2023-05-29T01:20:02;9.60;99.90
18502;DHT22;68437;52.236;5.710;2023-05-29T01:22:40;9.60;99.90
18502;DHT22;68437;52.236;5.710;2023-05-29T01:25:13;9.60;99.90
18502;DHT22;68437;52.236;5.710;2023-05-29T01:27:46;9.60;99.90
18502;DHT22;68437;52.236;5.710;2023-05-29T01:30:15;9.60;99.90
18502;DHT22;68437;52.236;5.710;2023-05-29T01:32:42;9.50;99.90
18502;DHT22;68437;52.236;5.710;2023-05-29T01:35:09;9.50;99.90
18502;DHT22;68437;52.236;5.710;2023-05-29T01:37:36;9.40;99.90
18502;DHT22;68437;52.236;5.710;2023-05-29T01:40:03;9.40;99.90
18502;DHT22;68437;52.236;5.710;2023-05-29T01:42:30;9.40;99.90
18502;DHT22;68437;52.236;5.710;2023-05-29T01:45:00;9.40;99.90
18502;DHT22;68437;52.236;5.710;2023-05-29T01:47:27;9.40;99.90
18502;DHT22;68437;52.236;5.710;2023-05-29T01:49:54;9.40;99.90
18502;DHT22;68437;52.236;5.710;2023-05-29T01:52:22;9.40;99.90
18502;DHT22;68437;52.236;5.710;2023-05-29T01:54:49;9.40;99.90
18502;DHT22;68437;52.236;5.710;2023-05-29T01:57:16;9.30;99.90
18502;DHT22;68437;52.236;5.710;2023-05-29T01:59:43;9.20;99.90
18502;DHT22;68437;52.236;5.710;2023-05-29T02:02:12;9.20;99.90
18502;DHT22;68437;52.236;5.710;2023-05-29T02:04:39;9.20;99.90
18502;DHT22;68437;52.236;5.710;2023-05-29T02:07:06;9.20;99.90
18502;DHT22;68437;52.236;5.710;2023-05-29T02:09:34;9.20;99.90
18502;DHT22;68437;52.236;5.710;2023-05-29T02:12:01;9.20;99.90
18502;DHT22;68437;52.236;5.710;2023-05-29T02:14:27;9.20;99.90
18502;DHT22;68437;52.236;5.710;2023-05-29T02:16:54;9.20;99.90
18502;DHT22;68437;52.236;5.710;2023-05-29T02:19:24;9.20;99.90
18502;DHT22;68437;52.236;5.710;2023-05-29T02:21:52;9.10;99.90
18502;DHT22;68437;52.236;5.710;2023-05-29T02:24:19;9.20;99.90
18502;DHT22;68437;52.236;5.710;2023-05-29T02:26:47;9.10;99.90
18502;DHT22;68437;52.236;5.710;2023-05-29T02:29:15;9.00;99.90
18502;DHT22;68437;52.236;5.710;2023-05-29T02:31:42;9.00;99.90
18502;DHT22;68437;52.236;5.710;2023-05-29T02:34:09;9.00;99.90
18502;DHT22;68437;52.236;5.710;2023-05-29T02:36:37;8.90;99.90
18502;DHT22;68437;52.236;5.710;2023-05-29T02:39:04;8.90;99.90
18502;DHT22;68437;52.236;5.710;2023-05-29T02:41:31;8.80;99.90
18502;DHT22;68437;52.236;5.710;2023-05-29T02:43:58;8.80;99.90
18502;DHT22;68437;52.236;5.710;2023-05-29T02:46:25;8.80;99.90
18502;DHT22;68437;52.236;5.710;2023-05-29T02:48:52;8.80;99.90
18502;DHT22;68437;52.236;5.710;2023-05-29T02:51:19;8.90;99.90
18502;DHT22;68437;52.236;5.710;2023-05-29T02:53:47;8.80;99.90
18502;DHT22;68437;52.236;5.710;2023-05-29T02:56:14;8.80;99.90
18502;DHT22;68437;52.236;5.710;2023-05-29T02:58:42;8.80;99.90
18502;DHT22;68437;52.236;5.710;2023-05-29T03:01:09;8.70;99.90
18502;DHT22;68437;52.236;5.710;2023-05-29T03:03:36;8.70;99.90
18502;DHT22;68437;52.236;5.710;2023-05-29T03:06:03;8.70;99.90
18502;DHT22;68437;52.236;5.710;2023-05-29T03:08:31;8.70;99.90
18502;DHT22;68437;52.236;5.710;2023-05-29T03:11:00;8.70;99.90
18502;DHT22;68437;52.236;5.710;2023-05-29T03:13:28;8.70;99.90
18502;DHT22;68437;52.236;5.710;2023-05-29T03:15:55;8.60;99.90
18502;DHT22;68437;52.236;5.710;2023-05-29T03:18:22;8.70;99.90
18502;DHT22;68437;52.236;5.710;2023-05-29T03:20:49;8.60;99.90
18502;DHT22;68437;52.236;5.710;2023-05-29T03:23:16;8.60;99.90
18502;DHT22;68437;52.236;5.710;2023-05-29T03:25:43;8.70;99.90
18502;DHT22;68437;52.236;5.710;2023-05-29T03:28:11;8.60;99.90
18502;DHT22;68437;52.236;5.710;2023-05-29T03:30:37;8.60;99.90
18502;DHT22;68437;52.236;5.710;2023-05-29T03:33:04;8.50;99.90
18502;DHT22;68437;52.236;5.710;2023-05-29T03:35:31;8.60;99.90
18502;DHT22;68437;52.236;5.710;2023-05-29T03:37:58;8.60;99.90
18502;DHT22;68437;52.236;5.710;2023-05-29T03:40:25;8.50;99.90
18502;DHT22;68437;52.236;5.710;2023-05-29T03:42:52;8.50;99.90
18502;DHT22;68437;52.236;5.710;2023-05-29T03:45:20;8.50;99.90
18502;DHT22;68437;52.236;5.710;2023-05-29T03:47:47;8.50;99.90
18502;DHT22;68437;52.236;5.710;2023-05-29T03:50:14;8.50;99.90
18502;DHT22;68437;52.236;5.710;2023-05-29T03:52:41;8.50;99.90
18502;DHT22;68437;52.236;5.710;2023-05-29T03:55:09;8.50;99.90
18502;DHT22;68437;52.236;5.710;2023-05-29T03:57:38;8.40;99.90
18502;DHT22;68437;52.236;5.710;2023-05-29T04:00:07;8.40;99.90
18502;DHT22;68437;52.236;5.710;2023-05-29T04:02:37;8.40;99.90
18502;DHT22;68437;52.236;5.710;2023-05-29T04:05:04;8.50;99.90
18502;DHT22;68437;52.236;5.710;2023-05-29T04:07:31;8.50;99.90
18502;DHT22;68437;52.236;5.710;2023-05-29T04:09:58;8.50;99.90
18502;DHT22;68437;52.236;5.710;2023-05-29T04:12:25;8.50;99.90
18502;DHT22;68437;52.236;5.710;2023-05-29T04:14:52;8.50;99.90
18502;DHT22;68437;52.236;5.710;2023-05-29T04:17:19;8.60;99.90
18502;DHT22;68437;52.236;5.710;2023-05-29T04:19:47;8.50;99.90
18502;DHT22;68437;52.236;5.710;2023-05-29T04:22:14;8.60;99.90
18502;DHT22;68437;52.236;5.710;2023-05-29T04:24:41;8.70;99.90
18502;DHT22;68437;52.236;5.710;2023-05-29T04:27:08;8.70;99.90
18502;DHT22;68437;52.236;5.710;2023-05-29T04:29:38;9.00;99.90
18502;DHT22;68437;52.236;5.710;2023-05-29T04:32:06;9.20;99.90
18502;DHT22;68437;52.236;5.710;2023-05-29T04:34:34;9.40;99.90
18502;DHT22;68437;52.236;5.710;2023-05-29T04:37:02;9.40;99.90
18502;DHT22;68437;52.236;5.710;2023-05-29T04:39:29;9.40;99.90
18502;DHT22;68437;52.236;5.710;2023-05-29T04:41:56;9.20;99.90
18502;DHT22;68437;52.236;5.710;2023-05-29T04:44:24;9.10;99.90
18502;DHT22;68437;52.236;5.710;2023-05-29T04:46:52;9.10;99.90
18502;DHT22;68437;52.236;5.710;2023-05-29T04:49:19;9.10;99.90
18502;DHT22;68437;52.236;5.710;2023-05-29T04:51:47;9.00;99.90
18502;DHT22;68437;52.236;5.710;2023-05-29T04:54:15;9.00;99.90
18502;DHT22;68437;52.236;5.710;2023-05-29T04:56:42;9.00;99.90
18502;DHT22;68437;52.236;5.710;2023-05-29T04:59:08;9.00;99.90
18502;DHT22;68437;52.236;5.710;2023-05-29T05:01:35;9.00;99.90
18502;DHT22;68437;52.236;5.710;2023-05-29T05:04:02;9.10;99.90
18502;DHT22;68437;52.236;5.710;2023-05-29T05:06:29;9.10;99.90
18502;DHT22;68437;52.236;5.710;2023-05-29T05:08:56;9.20;99.90
18502;DHT22;68437;52.236;5.710;2023-05-29T05:11:24;9.40;99.90
18502;DHT22;68437;52.236;5.710;2023-05-29T05:13:51;9.40;99.90
18502;DHT22;68437;52.236;5.710;2023-05-29T05:16:18;9.60;99.90
18502;DHT22;68437;52.236;5.710;2023-05-29T05:18:45;9.70;99.90
18502;DHT22;68437;52.236;5.710;2023-05-29T05:21:11;9.70;99.90
18502;DHT22;68437;52.236;5.710;2023-05-29T05:23:38;9.70;99.90
18502;DHT22;68437;52.236;5.710;2023-05-29T05:26:05;9.80;99.90
18502;DHT22;68437;52.236;5.710;2023-05-29T05:28:33;9.80;99.90
18502;DHT22;68437;52.236;5.710;2023-05-29T05:31:01;10.00;99.90
18502;DHT22;68437;52.236;5.710;2023-05-29T05:33:28;10.00;99.90
18502;DHT22;68437;52.236;5.710;2023-05-29T05:35:55;10.00;99.90
18502;DHT22;68437;52.236;5.710;2023-05-29T05:38:21;10.00;99.90
18502;DHT22;68437;52.236;5.710;2023-05-29T05:40:48;10.10;99.90
18502;DHT22;68437;52.236;5.710;2023-05-29T05:43:15;10.10;99.90
18502;DHT22;68437;52.236;5.710;2023-05-29T05:45:43;10.20;99.90
18502;DHT22;68437;52.236;5.710;2023-05-29T05:48:11;10.30;99.90
18502;DHT22;68437;52.236;5.710;2023-05-29T05:50:38;10.40;99.90
18502;DHT22;68437;52.236;5.710;2023-05-29T05:53:07;10.40;99.90
18502;DHT22;68437;52.236;5.710;2023-05-29T05:55:34;10.40;99.90
18502;DHT22;68437;52.236;5.710;2023-05-29T05:58:01;10.50;99.90
18502;DHT22;68437;52.236;5.710;2023-05-29T06:00:27;10.50;99.90
18502;DHT22;68437;52.236;5.710;2023-05-29T06:02:56;10.60;99.90
18502;DHT22;68437;52.236;5.710;2023-05-29T06:05:23;10.70;99.90
18502;DHT22;68437;52.236;5.710;2023-05-29T06:07:49;10.80;99.90
18502;DHT22;68437;52.236;5.710;2023-05-29T06:10:16;10.80;99.90
18502;DHT22;68437;52.236;5.710;2023-05-29T06:12:44;11.00;99.90
18502;DHT22;68437;52.236;5.710;2023-05-29T06:15:11;11.00;99.90
18502;DHT22;68437;52.236;5.710;2023-05-29T06:17:38;11.10;99.90
18502;DHT22;68437;52.236;5.710;2023-05-29T06:20:07;11.10;99.90
18502;DHT22;68437;52.236;5.710;2023-05-29T06:22:35;11.20;99.90
18502;DHT22;68437;52.236;5.710;2023-05-29T06:25:02;11.30;99.90
18502;DHT22;68437;52.236;5.710;2023-05-29T06:27:30;11.40;99.90
18502;DHT22;68437;52.236;5.710;2023-05-29T06:29:57;11.40;99.90
18502;DHT22;68437;52.236;5.710;2023-05-29T06:32:23;11.30;99.90
18502;DHT22;68437;52.236;5.710;2023-05-29T06:34:53;11.30;99.90
18502;DHT22;68437;52.236;5.710;2023-05-29T06:37:22;11.40;99.90
18502;DHT22;68437;52.236;5.710;2023-05-29T06:39:48;11.50;99.90
18502;DHT22;68437;52.236;5.710;2023-05-29T06:42:15;11.50;99.90
18502;DHT22;68437;52.236;5.710;2023-05-29T06:44:42;11.60;99.90
18502;DHT22;68437;52.236;5.710;2023-05-29T06:47:09;11.60;99.90
18502;DHT22;68437;52.236;5.710;2023-05-29T06:49:36;11.70;99.90
18502;DHT22;68437;52.236;5.710;2023-05-29T06:52:02;11.70;99.90
18502;DHT22;68437;52.236;5.710;2023-05-29T06:54:31;11.70;99.90
18502;DHT22;68437;52.236;5.710;2023-05-29T06:56:57;11.70;99.90
18502;DHT22;68437;52.236;5.710;2023-05-29T06:59:24;11.80;99.90
18502;DHT22;68437;52.236;5.710;2023-05-29T07:01:51;11.90;99.90
18502;DHT22;68437;52.236;5.710;2023-05-29T07:04:18;11.80;99.90
18502;DHT22;68437;52.236;5.710;2023-05-29T07:06:44;11.90;99.90
18502;DHT22;68437;52.236;5.710;2023-05-29T07:09:12;11.90;99.90
18502;DHT22;68437;52.236;5.710;2023-05-29T07:11:40;12.00;99.90
18502;DHT22;68437;52.236;5.710;2023-05-29T07:14:07;12.10;99.90
18502;DHT22;68437;52.236;5.710;2023-05-29T07:16:33;12.20;99.90
18502;DHT22;68437;52.236;5.710;2023-05-29T07:19:00;12.30;99.90
18502;DHT22;68437;52.236;5.710;2023-05-29T07:21:27;12.30;99.90
18502;DHT22;68437;52.236;5.710;2023-05-29T07:23:54;12.30;99.90
18502;DHT22;68437;52.236;5.710;2023-05-29T07:26:21;12.30;99.90
18502;DHT22;68437;52.236;5.710;2023-05-29T07:28:49;12.40;99.90
18502;DHT22;68437;52.236;5.710;2023-05-29T07:31:16;12.50;99.90
18502;DHT22;68437;52.236;5.710;2023-05-29T07:33:43;12.60;99.90
18502;DHT22;68437;52.236;5.710;2023-05-29T07:36:10;12.60;99.90
18502;DHT22;68437;52.236;5.710;2023-05-29T07:38:38;12.60;99.90
18502;DHT22;68437;52.236;5.710;2023-05-29T07:41:04;12.70;99.90
18502;DHT22;68437;52.236;5.710;2023-05-29T07:43:31;12.90;99.90
18502;DHT22;68437;52.236;5.710;2023-05-29T07:46:00;13.00;99.90
18502;DHT22;68437;52.236;5.710;2023-05-29T07:48:26;13.10;99.90
18502;DHT22;68437;52.236;5.710;2023-05-29T07:50:53;13.10;99.90
18502;DHT22;68437;52.236;5.710;2023-05-29T07:53:20;12.90;99.90
18502;DHT22;68437;52.236;5.710;2023-05-29T07:55:47;13.00;99.90
18502;DHT22;68437;52.236;5.710;2023-05-29T07:58:14;13.00;99.90
18502;DHT22;68437;52.236;5.710;2023-05-29T08:00:43;13.10;99.90
18502;DHT22;68437;52.236;5.710;2023-05-29T08:03:11;13.20;99.90
18502;DHT22;68437;52.236;5.710;2023-05-29T08:05:38;13.20;99.90
18502;DHT22;68437;52.236;5.710;2023-05-29T08:08:05;13.10;99.90
18502;DHT22;68437;52.236;5.710;2023-05-29T08:10:32;13.20;99.90
18502;DHT22;68437;52.236;5.710;2023-05-29T08:12:58;13.10;99.90
18502;DHT22;68437;52.236;5.710;2023-05-29T08:15:25;13.30;99.90
18502;DHT22;68437;52.236;5.710;2023-05-29T08:17:52;13.60;99.90
18502;DHT22;68437;52.236;5.710;2023-05-29T08:20:20;13.70;99.90
18502;DHT22;68437;52.236;5.710;2023-05-29T08:22:47;13.70;99.90
18502;DHT22;68437;52.236;5.710;2023-05-29T08:25:14;13.70;99.90
18502;DHT22;68437;52.236;5.710;2023-05-29T08:27:40;13.70;99.90
18502;DHT22;68437;52.236;5.710;2023-05-29T08:30:08;13.70;99.90
18502;DHT22;68437;52.236;5.710;2023-05-29T08:32:35;13.70;99.90
18502;DHT22;68437;52.236;5.710;2023-05-29T08:35:02;13.80;99.90
18502;DHT22;68437;52.236;5.710;2023-05-29T08:37:31;13.80;99.90
18502;DHT22;68437;52.236;5.710;2023-05-29T08:39:58;13.70;99.90
18502;DHT22;68437;52.236;5.710;2023-05-29T08:42:29;13.80;99.90
18502;DHT22;68437;52.236;5.710;2023-05-29T08:45:02;13.80;99.90
18502;DHT22;68437;52.236;5.710;2023-05-29T08:47:33;13.90;99.90
18502;DHT22;68437;52.236;5.710;2023-05-29T08:50:00;13.80;99.90
18502;DHT22;68437;52.236;5.710;2023-05-29T08:52:32;13.80;99.90
18502;DHT22;68437;52.236;5.710;2023-05-29T08:55:01;13.90;99.90
18502;DHT22;68437;52.236;5.710;2023-05-29T08:57:28;14.00;99.90
18502;DHT22;68437;52.236;5.710;2023-05-29T08:59:56;14.10;99.90
18502;DHT22;68437;52.236;5.710;2023-05-29T09:02:23;14.10;99.90
18502;DHT22;68437;52.236;5.710;2023-05-29T09:04:50;14.30;99.90
18502;DHT22;68437;52.236;5.710;2023-05-29T09:07:18;14.40;99.90
18502;DHT22;68437;52.236;5.710;2023-05-29T09:09:47;14.70;99.90
18502;DHT22;68437;52.236;5.710;2023-05-29T09:12:14;14.70;99.90
18502;DHT22;68437;52.236;5.710;2023-05-29T09:14:42;14.70;99.90
18502;DHT22;68437;52.236;5.710;2023-05-29T09:17:11;14.60;99.90
18502;DHT22;68437;52.236;5.710;2023-05-29T09:19:38;14.50;99.90
18502;DHT22;68437;52.236;5.710;2023-05-29T09:22:07;14.50;99.90
18502;DHT22;68437;52.236;5.710;2023-05-29T09:24:35;14.60;99.90
18502;DHT22;68437;52.236;5.710;2023-05-29T09:27:04;14.80;99.90
18502;DHT22;68437;52.236;5.710;2023-05-29T09:29:33;14.70;99.90
18502;DHT22;68437;52.236;5.710;2023-05-29T09:32:00;14.70;99.90
18502;DHT22;68437;52.236;5.710;2023-05-29T09:34:31;15.10;99.90
18502;DHT22;68437;52.236;5.710;2023-05-29T09:37:01;15.20;99.90
18502;DHT22;68437;52.236;5.710;2023-05-29T09:39:34;15.40;99.90
18502;DHT22;68437;52.236;5.710;2023-05-29T09:42:00;15.60;99.90
18502;DHT22;68437;52.236;5.710;2023-05-29T09:44:30;15.40;99.90
18502;DHT22;68437;52.236;5.710;2023-05-29T09:46:58;15.20;99.90
18502;DHT22;68437;52.236;5.710;2023-05-29T09:49:26;15.30;99.90
18502;DHT22;68437;52.236;5.710;2023-05-29T09:51:54;15.40;99.90
18502;DHT22;68437;52.236;5.710;2023-05-29T09:54:21;15.40;99.90
18502;DHT22;68437;52.236;5.710;2023-05-29T09:56:47;15.60;99.90
18502;DHT22;68437;52.236;5.710;2023-05-29T09:59:15;15.70;99.90
18502;DHT22;68437;52.236;5.710;2023-05-29T10:01:45;15.90;99.90
18502;DHT22;68437;52.236;5.710;2023-05-29T10:04:11;16.20;99.90
18502;DHT22;68437;52.236;5.710;2023-05-29T10:06:43;16.00;99.90
18502;DHT22;68437;52.236;5.710;2023-05-29T10:09:12;16.00;99.90
18502;DHT22;68437;52.236;5.710;2023-05-29T10:11:42;16.00;99.90
18502;DHT22;68437;52.236;5.710;2023-05-29T10:14:17;15.90;99.90
18502;DHT22;68437;52.236;5.710;2023-05-29T10:16:47;16.00;99.90
18502;DHT22;68437;52.236;5.710;2023-05-29T10:19:19;15.90;99.90
18502;DHT22;68437;52.236;5.710;2023-05-29T10:21:49;16.00;99.90
18502;DHT22;68437;52.236;5.710;2023-05-29T10:24:17;16.10;99.90
18502;DHT22;68437;52.236;5.710;2023-05-29T10:26:47;16.20;99.90
18502;DHT22;68437;52.236;5.710;2023-05-29T10:29:19;16.30;99.90
18502;DHT22;68437;52.236;5.710;2023-05-29T10:32:05;16.40;99.90
18502;DHT22;68437;52.236;5.710;2023-05-29T10:34:37;16.60;99.90
18502;DHT22;68437;52.236;5.710;2023-05-29T10:37:09;16.80;99.90
18502;DHT22;68437;52.236;5.710;2023-05-29T10:39:40;16.50;99.90
18502;DHT22;68437;52.236;5.710;2023-05-29T10:42:40;16.20;99.90
18502;DHT22;68437;52.236;5.710;2023-05-29T10:45:08;16.20;99.90
18502;DHT22;68437;52.236;5.710;2023-05-29T10:47:36;16.10;99.90
18502;DHT22;68437;52.236;5.710;2023-05-29T10:50:03;16.10;99.90
18502;DHT22;68437;52.236;5.710;2023-05-29T10:52:31;16.40;99.90
18502;DHT22;68437;52.236;5.710;2023-05-29T10:54:58;16.60;99.90
18502;DHT22;68437;52.236;5.710;2023-05-29T10:57:25;16.90;99.90
18502;DHT22;68437;52.236;5.710;2023-05-29T11:00:15;17.10;99.90
18502;DHT22;68437;52.236;5.710;2023-05-29T11:02:45;17.30;99.90
18502;DHT22;68437;52.236;5.710;2023-05-29T11:05:20;17.30;99.90
18502;DHT22;68437;52.236;5.710;2023-05-29T11:08:00;17.10;99.90
18502;DHT22;68437;52.236;5.710;2023-05-29T11:10:45;17.20;99.90
18502;DHT22;68437;52.236;5.710;2023-05-29T11:13:26;17.20;99.90
18502;DHT22;68437;52.236;5.710;2023-05-29T11:16:12;17.00;99.90
18502;DHT22;68437;52.236;5.710;2023-05-29T11:18:45;17.10;99.90
18502;DHT22;68437;52.236;5.710;2023-05-29T11:21:23;17.30;99.90
18502;DHT22;68437;52.236;5.710;2023-05-29T11:23:51;17.50;99.90
18502;DHT22;68437;52.236;5.710;2023-05-29T11:26:19;17.70;99.90
18502;DHT22;68437;52.236;5.710;2023-05-29T11:28:47;17.80;99.90
18502;DHT22;68437;52.236;5.710;2023-05-29T11:31:15;17.80;99.90
18502;DHT22;68437;52.236;5.710;2023-05-29T11:33:48;17.80;99.90
18502;DHT22;68437;52.236;5.710;2023-05-29T11:36:16;17.70;99.90
18502;DHT22;68437;52.236;5.710;2023-05-29T11:38:43;17.60;99.90
18502;DHT22;68437;52.236;5.710;2023-05-29T11:41:10;17.70;99.90
18502;DHT22;68437;52.236;5.710;2023-05-29T11:43:37;17.80;99.90
18502;DHT22;68437;52.236;5.710;2023-05-29T11:46:15;17.80;99.90
18502;DHT22;68437;52.236;5.710;2023-05-29T11:48:46;18.00;99.90
18502;DHT22;68437;52.236;5.710;2023-05-29T11:51:13;17.60;99.90
18502;DHT22;68437;52.236;5.710;2023-05-29T11:53:40;17.50;99.90
18502;DHT22;68437;52.236;5.710;2023-05-29T11:56:08;17.50;99.90
18502;DHT22;68437;52.236;5.710;2023-05-29T11:58:36;17.30;99.90
18502;DHT22;68437;52.236;5.710;2023-05-29T12:01:03;17.20;99.90
18502;DHT22;68437;52.236;5.710;2023-05-29T12:03:30;17.30;99.90
18502;DHT22;68437;52.236;5.710;2023-05-29T12:05:58;17.50;99.90
18502;DHT22;68437;52.236;5.710;2023-05-29T12:08:26;17.50;99.90
18502;DHT22;68437;52.236;5.710;2023-05-29T12:10:53;17.40;99.90
18502;DHT22;68437;52.236;5.710;2023-05-29T12:13:20;17.30;99.90
18502;DHT22;68437;52.236;5.710;2023-05-29T12:15:48;17.20;99.90
18502;DHT22;68437;52.236;5.710;2023-05-29T12:18:15;17.20;99.90
18502;DHT22;68437;52.236;5.710;2023-05-29T12:20:42;17.40;99.90
18502;DHT22;68437;52.236;5.710;2023-05-29T12:23:11;17.40;99.90
18502;DHT22;68437;52.236;5.710;2023-05-29T12:25:38;17.10;99.90
18502;DHT22;68437;52.236;5.710;2023-05-29T12:28:05;17.20;99.90
18502;DHT22;68437;52.236;5.710;2023-05-29T12:30:37;17.20;99.90
18502;DHT22;68437;52.236;5.710;2023-05-29T12:33:03;17.20;99.90
18502;DHT22;68437;52.236;5.710;2023-05-29T12:35:31;17.30;99.90
18502;DHT22;68437;52.236;5.710;2023-05-29T12:38:00;17.30;99.90
18502;DHT22;68437;52.236;5.710;2023-05-29T12:40:30;17.30;99.90
18502;DHT22;68437;52.236;5.710;2023-05-29T12:43:00;17.30;99.90
18502;DHT22;68437;52.236;5.710;2023-05-29T12:45:29;17.20;99.90
18502;DHT22;68437;52.236;5.710;2023-05-29T12:47:57;17.30;99.90
18502;DHT22;68437;52.236;5.710;2023-05-29T12:50:27;17.40;99.90
18502;DHT22;68437;52.236;5.710;2023-05-29T12:53:00;17.50;99.90
18502;DHT22;68437;52.236;5.710;2023-05-29T12:55:30;17.40;99.90
18502;DHT22;68437;52.236;5.710;2023-05-29T12:57:59;17.30;99.90
18502;DHT22;68437;52.236;5.710;2023-05-29T13:00:26;17.10;99.90
18502;DHT22;68437;52.236;5.710;2023-05-29T13:02:52;17.10;99.90
18502;DHT22;68437;52.236;5.710;2023-05-29T13:05:19;17.20;99.90
18502;DHT22;68437;52.236;5.710;2023-05-29T13:07:48;17.40;99.90
18502;DHT22;68437;52.236;5.710;2023-05-29T13:10:15;17.40;99.90
18502;DHT22;68437;52.236;5.710;2023-05-29T13:12:44;17.50;99.90
18502;DHT22;68437;52.236;5.710;2023-05-29T13:15:12;17.60;99.90
18502;DHT22;68437;52.236;5.710;2023-05-29T13:17:39;17.70;99.90
18502;DHT22;68437;52.236;5.710;2023-05-29T13:20:08;17.70;99.90
18502;DHT22;68437;52.236;5.710;2023-05-29T13:22:36;17.70;99.90
18502;DHT22;68437;52.236;5.710;2023-05-29T13:25:03;17.60;99.90
18502;DHT22;68437;52.236;5.710;2023-05-29T13:27:31;17.60;99.90
18502;DHT22;68437;52.236;5.710;2023-05-29T13:30:00;17.70;99.90
18502;DHT22;68437;52.236;5.710;2023-05-29T13:32:27;18.00;99.90
18502;DHT22;68437;52.236;5.710;2023-05-29T13:34:54;18.10;99.90
18502;DHT22;68437;52.236;5.710;2023-05-29T13:37:21;17.90;99.90
18502;DHT22;68437;52.236;5.710;2023-05-29T13:39:48;17.80;99.90
18502;DHT22;68437;52.236;5.710;2023-05-29T13:42:15;17.70;99.90
18502;DHT22;68437;52.236;5.710;2023-05-29T13:44:42;17.60;99.90
18502;DHT22;68437;52.236;5.710;2023-05-29T13:47:10;17.70;99.90
18502;DHT22;68437;52.236;5.710;2023-05-29T13:49:37;17.70;99.90
18502;DHT22;68437;52.236;5.710;2023-05-29T13:52:04;17.50;99.90
18502;DHT22;68437;52.236;5.710;2023-05-29T13:54:31;17.50;99.90
18502;DHT22;68437;52.236;5.710;2023-05-29T13:57:01;17.60;99.90
18502;DHT22;68437;52.236;5.710;2023-05-29T13:59:28;17.80;99.90
18502;DHT22;68437;52.236;5.710;2023-05-29T14:01:55;17.80;99.90
18502;DHT22;68437;52.236;5.710;2023-05-29T14:04:23;17.60;99.90
18502;DHT22;68437;52.236;5.710;2023-05-29T14:06:50;17.80;99.90
18502;DHT22;68437;52.236;5.710;2023-05-29T14:09:17;17.70;99.90
18502;DHT22;68437;52.236;5.710;2023-05-29T14:11:51;17.70;99.90
18502;DHT22;68437;52.236;5.710;2023-05-29T14:14:18;17.70;99.90
18502;DHT22;68437;52.236;5.710;2023-05-29T14:16:45;17.90;99.90
18502;DHT22;68437;52.236;5.710;2023-05-29T14:19:12;17.90;99.90
18502;DHT22;68437;52.236;5.710;2023-05-29T14:21:40;17.70;99.90
18502;DHT22;68437;52.236;5.710;2023-05-29T14:24:07;17.60;99.90
18502;DHT22;68437;52.236;5.710;2023-05-29T14:26:34;17.60;99.90
18502;DHT22;68437;52.236;5.710;2023-05-29T14:29:01;17.80;99.90
18502;DHT22;68437;52.236;5.710;2023-05-29T14:31:27;17.80;99.90
18502;DHT22;68437;52.236;5.710;2023-05-29T14:33:55;17.70;99.90
18502;DHT22;68437;52.236;5.710;2023-05-29T14:36:22;17.60;99.90
18502;DHT22;68437;52.236;5.710;2023-05-29T14:38:50;17.60;99.90
18502;DHT22;68437;52.236;5.710;2023-05-29T14:41:17;17.70;99.90
18502;DHT22;68437;52.236;5.710;2023-05-29T14:43:44;17.90;99.90
18502;DHT22;68437;52.236;5.710;2023-05-29T14:46:11;17.90;99.90
18502;DHT22;68437;52.236;5.710;2023-05-29T14:48:38;17.70;99.90
18502;DHT22;68437;52.236;5.710;2023-05-29T14:51:05;17.80;99.90
18502;DHT22;68437;52.236;5.710;2023-05-29T14:53:32;18.00;99.90
18502;DHT22;68437;52.236;5.710;2023-05-29T14:56:00;18.00;99.90
18502;DHT22;68437;52.236;5.710;2023-05-29T14:58:27;18.00;99.90
18502;DHT22;68437;52.236;5.710;2023-05-29T15:00:54;17.80;99.90
18502;DHT22;68437;52.236;5.710;2023-05-29T15:03:23;17.80;99.90
18502;DHT22;68437;52.236;5.710;2023-05-29T15:05:52;17.70;99.90
18502;DHT22;68437;52.236;5.710;2023-05-29T15:08:19;17.50;99.90
18502;DHT22;68437;52.236;5.710;2023-05-29T15:10:47;17.50;99.90
18502;DHT22;68437;52.236;5.710;2023-05-29T15:13:15;17.60;99.90
18502;DHT22;68437;52.236;5.710;2023-05-29T15:15:42;17.60;99.90
18502;DHT22;68437;52.236;5.710;2023-05-29T15:18:08;17.60;99.90
18502;DHT22;68437;52.236;5.710;2023-05-29T15:20:35;17.60;99.90
18502;DHT22;68437;52.236;5.710;2023-05-29T15:23:02;17.80;99.90
18502;DHT22;68437;52.236;5.710;2023-05-29T15:25:29;17.80;99.90
18502;DHT22;68437;52.236;5.710;2023-05-29T15:27:56;17.70;99.90
18502;DHT22;68437;52.236;5.710;2023-05-29T15:30:25;17.60;99.90
18502;DHT22;68437;52.236;5.710;2023-05-29T15:32:52;17.70;99.90
18502;DHT22;68437;52.236;5.710;2023-05-29T15:35:19;17.80;99.90
18502;DHT22;68437;52.236;5.710;2023-05-29T15:37:46;17.60;99.90
18502;DHT22;68437;52.236;5.710;2023-05-29T15:40:13;17.50;99.90